Time;durP1;ratioP1;P1;durP2;ratioP2;P2;SDS_P1;SDS_P2;PMS_P1;PMS_P2;Temp;Humidity;BMP_temperature;BMP_pressure;BME280_temperature;BME280_humidity;BME280_pressure;Samples;Min_cycle;Max_cycle;Signal;HPM_P1;HPM_P2
2022/01/02 00:00:13;;;;;;;7.30;3.70;;;10.60;99.90;;;;;;5090851;28;20073;-48
2022/01/02 00:02:41;;;;;;;6.18;3.65;;;10.60;99.90;;;;;;5090696;28;20024;-47
2022/01/02 00:05:12;;;;;;;6.07;3.40;;;10.70;99.90;;;;;;5090697;28;20115;-48
2022/01/02 00:07:53;;;;;;;8.55;4.25;;;10.60;99.90;;;;;;5089945;28;20052;-47
2022/01/02 00:10:21;;;;;;;7.00;3.67;;;10.60;99.90;;;;;;5090485;28;20111;-47
2022/01/02 00:12:54;;;;;;;9.07;4.10;;;10.60;99.90;;;;;;5090777;28;20047;-49
2022/01/02 00:15:20;;;;;;;8.15;3.72;;;10.60;99.90;;;;;;5088197;28;20077;-48
2022/01/02 00:17:49;;;;;;;8.05;4.07;;;10.50;99.90;;;;;;5088356;28;20027;-48
2022/01/02 00:20:17;;;;;;;5.22;3.55;;;10.50;99.90;;;;;;5089953;28;20031;-47
2022/01/02 00:22:48;;;;;;;7.82;4.78;;;10.40;99.90;;;;;;5086510;28;20093;-47
2022/01/02 00:25:25;;;;;;;8.65;4.57;;;10.40;99.90;;;;;;5081582;28;20024;-47
2022/01/02 00:27:52;;;;;;;6.60;3.83;;;10.40;99.90;;;;;;5089274;28;20073;-47
2022/01/02 00:30:18;;;;;;;10.18;4.30;;;10.40;99.90;;;;;;5089177;28;20377;-49
2022/01/02 00:32:44;;;;;;;9.43;4.70;;;10.40;99.90;;;;;;5090120;28;20024;-48
2022/01/02 00:35:10;;;;;;;6.72;4.07;;;10.40;99.90;;;;;;5085519;28;20051;-48
2022/01/02 00:37:36;;;;;;;10.15;3.92;;;10.40;99.90;;;;;;5083258;28;20115;-48
2022/01/02 00:40:03;;;;;;;9.05;4.47;;;10.50;99.90;;;;;;5089870;28;20526;-46
2022/01/02 00:42:39;;;;;;;9.70;5.05;;;10.40;99.90;;;;;;5089733;28;20129;-47
2022/01/02 00:45:07;;;;;;;11.23;4.80;;;10.50;99.90;;;;;;5089917;28;20107;-47
2022/01/02 00:47:39;;;;;;;6.32;4.05;;;10.50;99.90;;;;;;5089120;28;20039;-48
2022/01/02 00:50:22;;;;;;;6.55;3.97;;;10.40;99.90;;;;;;5089498;28;20028;-50
2022/01/02 00:52:49;;;;;;;13.02;4.70;;;10.40;99.90;;;;;;5089633;28;20020;-47
2022/01/02 00:55:19;;;;;;;9.60;4.85;;;10.40;99.90;;;;;;5089602;28;20073;-47
2022/01/02 00:57:53;;;;;;;6.95;4.03;;;10.40;99.90;;;;;;5088910;28;20024;-48
2022/01/02 01:00:19;;;;;;;8.02;4.32;;;10.40;99.90;;;;;;5089463;28;20032;-46
2022/01/02 01:02:53;;;;;;;6.80;4.20;;;10.50;99.90;;;;;;5088244;28;20035;-47
2022/01/02 01:05:30;;;;;;;7.85;4.60;;;10.40;99.90;;;;;;5085025;28;20016;-47
2022/01/02 01:07:58;;;;;;;8.80;4.15;;;10.40;99.90;;;;;;5083956;28;20032;-48
2022/01/02 01:10:25;;;;;;;9.38;4.50;;;10.40;99.90;;;;;;5087958;28;20036;-47
2022/01/02 01:12:54;;;;;;;8.10;4.60;;;10.30;99.90;;;;;;5089300;28;20027;-46
2022/01/02 01:15:21;;;;;;;8.93;4.68;;;10.30;99.90;;;;;;5087801;28;20024;-49
2022/01/02 01:17:47;;;;;;;6.55;4.03;;;10.30;99.90;;;;;;5088471;28;20410;-49
2022/01/02 01:20:14;;;;;;;7.32;4.40;;;10.30;99.90;;;;;;5088878;28;20397;-47
2022/01/02 01:22:41;;;;;;;12.30;4.40;;;10.30;99.90;;;;;;5089108;28;20024;-48
2022/01/02 01:25:11;;;;;;;11.43;4.47;;;10.30;99.90;;;;;;5089279;28;20024;-47
2022/01/02 01:27:37;;;;;;;7.15;4.43;;;10.30;99.90;;;;;;5088462;28;20121;-47
2022/01/02 01:30:04;;;;;;;9.10;3.92;;;10.20;99.90;;;;;;5088939;28;20524;-50
2022/01/02 01:32:29;;;;;;;12.18;5.60;;;10.20;99.90;;;;;;5088923;28;20019;-49
2022/01/02 01:34:55;;;;;;;6.95;4.07;;;10.20;99.90;;;;;;5078800;28;20265;-47
2022/01/02 01:37:20;;;;;;;7.05;4.25;;;10.20;99.90;;;;;;5079775;28;20024;-47
2022/01/02 01:39:46;;;;;;;8.65;4.53;;;10.10;99.90;;;;;;5088735;28;20525;-48
2022/01/02 01:42:12;;;;;;;8.52;4.57;;;10.20;99.90;;;;;;5089008;28;20562;-47
2022/01/02 01:44:41;;;;;;;7.20;4.28;;;10.20;99.90;;;;;;5088751;28;20290;-47
2022/01/02 01:47:07;;;;;;;5.03;3.47;;;10.10;99.90;;;;;;5088624;28;20300;-47
2022/01/02 01:49:32;;;;;;;8.55;4.80;;;10.10;99.90;;;;;;5087872;28;20039;-47
2022/01/02 01:51:59;;;;;;;6.70;5.07;;;10.00;99.90;;;;;;5088964;28;20063;-46
2022/01/02 01:54:25;;;;;;;6.70;4.03;;;10.00;99.90;;;;;;5088743;28;20020;-49
2022/01/02 01:56:52;;;;;;;7.35;4.55;;;10.00;99.90;;;;;;5088693;28;20043;-47
2022/01/02 01:59:19;;;;;;;7.47;5.45;;;10.00;99.90;;;;;;5087544;28;20020;-49
2022/01/02 02:01:45;;;;;;;9.23;4.75;;;10.00;99.90;;;;;;5088560;28;20087;-48
2022/01/02 02:04:11;;;;;;;9.50;4.82;;;10.00;99.90;;;;;;5086384;28;20058;-47
2022/01/02 02:06:37;;;;;;;7.75;4.68;;;10.00;99.90;;;;;;5076635;28;20020;-47
2022/01/02 02:09:04;;;;;;;13.02;4.82;;;10.10;99.90;;;;;;5085642;28;20028;-48
2022/01/02 02:11:30;;;;;;;6.80;4.65;;;10.10;99.90;;;;;;5087362;28;20027;-47
2022/01/02 02:13:57;;;;;;;8.75;5.05;;;10.10;99.90;;;;;;5087234;28;20320;-49
2022/01/02 02:16:23;;;;;;;9.98;5.07;;;10.10;99.90;;;;;;5088553;28;20016;-50
2022/01/02 02:18:49;;;;;;;7.25;4.53;;;10.10;99.90;;;;;;5087878;28;20040;-49
2022/01/02 02:21:15;;;;;;;18.52;4.88;;;10.10;99.90;;;;;;5088368;28;20090;-47
2022/01/02 02:23:44;;;;;;;9.32;4.57;;;10.10;99.90;;;;;;5088863;28;20020;-48
2022/01/02 02:26:09;;;;;;;8.73;4.80;;;10.20;99.90;;;;;;5088587;28;20466;-47
2022/01/02 02:28:35;;;;;;;6.53;4.65;;;10.20;99.90;;;;;;5088022;28;20043;-48
2022/01/02 02:31:00;;;;;;;9.85;5.82;;;10.20;99.90;;;;;;5088542;28;20036;-49
2022/01/02 02:33:26;;;;;;;5.03;3.88;;;10.20;99.90;;;;;;5088613;28;20055;-49
2022/01/02 02:35:52;;;;;;;9.07;4.68;;;10.30;99.90;;;;;;5079500;28;20028;-50
2022/01/02 02:38:18;;;;;;;10.02;4.90;;;10.30;99.90;;;;;;5077900;28;20024;-47
2022/01/02 02:40:44;;;;;;;7.65;4.28;;;10.30;99.90;;;;;;5087201;28;20024;-49
2022/01/02 02:49:00;;;;;;;7.82;4.82;;;10.40;99.90;;;;;;5087816;28;20039;-50
2022/01/02 02:51:56;;;;;;;7.32;4.82;;;10.40;99.90;;;;;;5087820;28;20055;-47
2022/01/02 02:54:19;;;;;;;7.60;5.22;;;10.50;99.90;;;;;;5091629;28;20039;-49
2022/01/02 02:57:12;;;;;;;11.93;5.65;;;10.50;99.90;;;;;;5092153;28;20016;-50
2022/01/02 02:59:33;;;;;;;7.15;5.13;;;10.50;99.90;;;;;;5091531;28;20055;-49
2022/01/02 03:01:59;;;;;;;11.95;5.50;;;10.60;99.90;;;;;;5090506;28;20024;-49
2022/01/02 03:04:25;;;;;;;6.95;4.75;;;10.60;99.90;;;;;;5089230;28;20394;-48
2022/01/02 03:06:51;;;;;;;9.15;5.55;;;10.60;99.90;;;;;;5078815;28;20028;-46
2022/01/02 03:09:32;;;;;;;13.35;6.72;;;10.60;99.90;;;;;;5089477;28;20024;-48
2022/01/02 03:11:58;;;;;;;9.90;5.90;;;10.60;99.90;;;;;;5092209;28;20153;-50
2022/01/02 03:14:23;;;;;;;11.45;6.10;;;10.70;99.90;;;;;;5091804;28;20115;-46
2022/01/02 03:16:48;;;;;;;11.13;6.05;;;10.60;99.90;;;;;;5091623;28;20020;-50
2022/01/02 03:19:14;;;;;;;12.50;5.90;;;10.60;99.90;;;;;;5091016;28;20036;-49
2022/01/02 03:21:39;;;;;;;10.80;5.93;;;10.60;99.90;;;;;;5091405;28;20024;-48
2022/01/02 03:24:05;;;;;;;11.48;6.00;;;10.60;99.90;;;;;;5091391;28;20159;-48
2022/01/02 03:26:30;;;;;;;11.35;6.30;;;10.50;99.90;;;;;;5091485;28;20115;-47
2022/01/02 03:28:56;;;;;;;10.75;5.70;;;10.50;99.90;;;;;;5090632;28;20382;-48
2022/01/02 03:31:21;;;;;;;10.02;6.18;;;10.50;99.90;;;;;;5091217;28;20099;-50
2022/01/02 03:33:47;;;;;;;15.45;6.80;;;10.50;99.90;;;;;;5090106;28;20021;-47
2022/01/02 03:36:13;;;;;;;10.88;6.50;;;10.50;99.90;;;;;;5080771;28;20032;-49
2022/01/02 03:38:38;;;;;;;16.50;7.30;;;10.50;99.90;;;;;;5084883;28;20028;-49
2022/01/02 03:41:04;;;;;;;13.60;7.00;;;10.40;99.90;;;;;;5091427;28;20032;-50
2022/01/02 03:43:29;;;;;;;11.20;7.38;;;10.50;99.90;;;;;;5091566;28;20546;-48
2022/01/02 03:45:55;;;;;;;13.50;7.82;;;10.40;99.90;;;;;;5090862;28;20278;-47
2022/01/02 03:48:20;;;;;;;17.20;8.00;;;10.50;99.90;;;;;;5090285;28;20541;-48
2022/01/02 03:50:46;;;;;;;15.00;8.00;;;10.50;99.90;;;;;;5078511;28;20029;-48
2022/01/02 03:53:11;;;;;;;17.17;8.80;;;10.60;99.90;;;;;;5089780;28;20030;-48
2022/01/02 03:55:38;;;;;;;11.25;7.38;;;10.70;99.90;;;;;;5090791;28;20486;-50
2022/01/02 03:58:03;;;;;;;13.63;7.50;;;10.70;99.90;;;;;;5080141;28;20059;-47
2022/01/02 04:00:29;;;;;;;15.13;8.48;;;10.70;99.90;;;;;;5082189;28;20055;-47
2022/01/02 04:02:54;;;;;;;11.05;7.28;;;10.70;99.90;;;;;;5090718;28;20382;-48
2022/01/02 04:05:20;;;;;;;15.30;8.40;;;10.80;99.90;;;;;;5090536;28;20035;-47
2022/01/02 04:07:46;;;;;;;13.48;7.35;;;10.80;99.90;;;;;;5090157;28;20103;-47
2022/01/02 04:10:14;;;;;;;13.50;7.22;;;10.80;99.90;;;;;;5090439;28;20270;-49
2022/01/02 04:12:41;;;;;;;15.98;7.55;;;10.80;99.90;;;;;;5090513;28;20019;-47
2022/01/02 04:15:08;;;;;;;13.32;7.80;;;10.90;99.90;;;;;;5089193;28;20450;-49
2022/01/02 04:17:35;;;;;;;13.48;6.47;;;10.90;99.90;;;;;;5086791;28;20095;-46
2022/01/02 04:20:02;;;;;;;13.30;7.32;;;10.90;99.90;;;;;;5086491;28;20025;-49
2022/01/02 04:22:28;;;;;;;15.57;7.57;;;10.90;99.90;;;;;;5074809;28;20498;-47
2022/01/02 04:24:53;;;;;;;14.65;7.03;;;10.90;99.90;;;;;;5083319;28;20032;-47
2022/01/02 04:27:20;;;;;;;13.73;7.90;;;10.90;99.90;;;;;;5082323;28;20040;-47
2022/01/02 04:29:46;;;;;;;14.55;7.88;;;11.10;99.90;;;;;;5081555;28;20385;-48
2022/01/02 04:32:12;;;;;;;11.20;6.97;;;11.10;99.90;;;;;;5090161;28;20122;-46
2022/01/02 04:34:38;;;;;;;11.50;7.05;;;11.10;99.90;;;;;;5086389;28;20020;-49
2022/01/02 04:37:04;;;;;;;13.00;7.30;;;11.20;99.90;;;;;;5078950;28;20409;-47
2022/01/02 04:39:32;;;;;;;12.63;6.55;;;11.20;99.90;;;;;;5089361;28;20103;-48
2022/01/02 04:41:57;;;;;;;14.38;7.43;;;11.20;99.90;;;;;;5089809;28;20024;-49
2022/01/02 04:44:22;;;;;;;9.32;6.85;;;11.30;99.90;;;;;;5090307;28;20051;-48
2022/01/02 04:46:48;;;;;;;16.15;6.25;;;11.20;99.90;;;;;;5089842;28;20067;-48
2022/01/02 04:49:13;;;;;;;11.85;6.82;;;11.20;99.90;;;;;;5088926;28;20374;-46
2022/01/02 04:51:39;;;;;;;11.30;7.00;;;11.20;99.90;;;;;;5089796;28;20178;-49
2022/01/02 04:54:04;;;;;;;13.68;7.32;;;11.30;99.90;;;;;;5089603;28;20028;-49
2022/01/02 04:56:30;;;;;;;12.52;6.45;;;11.30;99.90;;;;;;5089596;28;20065;-47
2022/01/02 04:58:55;;;;;;;15.75;6.75;;;11.30;99.90;;;;;;5089263;28;20433;-46
2022/01/02 05:01:21;;;;;;;13.30;7.38;;;11.30;99.90;;;;;;5089310;28;20028;-46
2022/01/02 05:03:46;;;;;;;14.23;6.78;;;11.30;99.90;;;;;;5089836;28;20461;-47
2022/01/02 05:06:12;;;;;;;10.35;6.32;;;11.30;99.90;;;;;;5081856;28;20024;-48
2022/01/02 05:08:38;;;;;;;13.45;6.22;;;11.30;99.90;;;;;;5082971;28;20115;-47
2022/01/02 05:11:04;;;;;;;10.88;6.50;;;11.30;99.90;;;;;;5089343;28;20146;-48
2022/01/02 05:13:30;;;;;;;13.48;6.50;;;11.30;99.90;;;;;;5089227;28;20028;-46
2022/01/02 05:15:55;;;;;;;10.80;6.97;;;11.30;99.90;;;;;;5088885;28;20557;-46
2022/01/02 05:18:21;;;;;;;9.32;6.03;;;11.40;99.90;;;;;;5088746;28;20023;-49
2022/01/02 05:20:46;;;;;;;12.50;6.15;;;11.30;99.90;;;;;;5088956;28;20024;-49
2022/01/02 05:23:13;;;;;;;9.80;5.63;;;11.40;99.90;;;;;;5087794;28;20115;-47
2022/01/02 05:25:39;;;;;;;9.80;5.88;;;11.40;99.90;;;;;;5089148;28;20035;-46
2022/01/02 05:28:05;;;;;;;9.63;6.60;;;11.40;99.90;;;;;;5088249;28;20035;-46
2022/01/02 05:30:30;;;;;;;10.05;5.80;;;11.40;99.90;;;;;;5088900;28;20020;-47
2022/01/02 05:32:56;;;;;;;9.85;5.68;;;11.50;99.90;;;;;;5089043;28;20081;-48
2022/01/02 05:35:21;;;;;;;12.68;6.07;;;11.50;99.90;;;;;;5083174;28;20484;-46
2022/01/02 05:37:47;;;;;;;14.27;6.68;;;11.50;99.90;;;;;;5079906;28;20023;-47
2022/01/02 05:40:12;;;;;;;10.88;5.70;;;11.50;99.90;;;;;;5088933;28;20689;-49
2022/01/02 05:42:38;;;;;;;7.57;5.07;;;11.50;99.90;;;;;;5088815;28;20043;-49
2022/01/02 05:45:04;;;;;;;12.85;6.00;;;11.50;99.90;;;;;;5088869;28;20024;-46
2022/01/02 05:47:29;;;;;;;12.00;5.43;;;11.60;99.90;;;;;;5088323;28;20073;-46
2022/01/02 05:49:55;;;;;;;13.27;5.97;;;11.60;99.90;;;;;;5088410;28;20036;-46
2022/01/02 05:52:20;;;;;;;10.00;5.93;;;11.60;99.90;;;;;;5088836;28;20101;-46
2022/01/02 05:54:45;;;;;;;9.55;5.47;;;11.60;99.90;;;;;;5087433;28;20024;-46
2022/01/02 05:57:11;;;;;;;8.82;6.00;;;11.60;99.90;;;;;;5088148;28;20028;-46
2022/01/02 05:59:39;;;;;;;9.98;5.60;;;11.70;99.90;;;;;;5088577;28;20500;-46
2022/01/02 06:02:04;;;;;;;12.52;5.63;;;11.70;99.90;;;;;;5088653;28;20482;-48
2022/01/02 06:04:29;;;;;;;9.00;5.13;;;11.60;99.90;;;;;;5088558;28;20047;-45
2022/01/02 06:06:55;;;;;;;17.15;6.07;;;11.70;99.90;;;;;;5076488;28;20389;-47
2022/01/02 06:09:20;;;;;;;12.80;5.72;;;11.70;99.90;;;;;;5088282;28;20038;-46
2022/01/02 06:11:46;;;;;;;13.70;6.00;;;11.70;99.90;;;;;;5088543;28;20024;-46
2022/01/02 06:14:12;;;;;;;10.85;6.32;;;11.70;99.90;;;;;;5088471;28;20387;-49
2022/01/02 06:16:37;;;;;;;10.88;5.90;;;11.70;99.90;;;;;;5088764;28;20095;-48
2022/01/02 06:19:02;;;;;;;13.13;5.63;;;11.80;99.90;;;;;;5087899;28;20119;-47
2022/01/02 06:21:28;;;;;;;14.00;5.80;;;11.80;99.90;;;;;;5088391;28;20073;-48
2022/01/02 06:23:53;;;;;;;15.73;5.70;;;11.80;99.90;;;;;;5088547;28;20052;-47
2022/01/02 06:26:19;;;;;;;12.70;6.10;;;11.90;99.90;;;;;;5089429;28;20058;-46
2022/01/02 06:28:44;;;;;;;11.98;5.10;;;11.80;99.90;;;;;;5091863;28;20024;-48
2022/01/02 06:31:11;;;;;;;11.50;5.45;;;11.90;99.90;;;;;;5092353;28;20027;-48
2022/01/02 06:33:37;;;;;;;16.10;4.82;;;11.90;99.90;;;;;;5092398;28;20022;-46
2022/01/02 06:36:02;;;;;;;12.13;5.40;;;11.90;99.90;;;;;;5079159;28;20476;-47
2022/01/02 06:38:28;;;;;;;11.45;5.05;;;11.90;99.90;;;;;;5071656;28;20418;-46
2022/01/02 06:40:53;;;;;;;7.55;4.82;;;12.00;99.90;;;;;;5074646;28;20509;-46
2022/01/02 06:43:20;;;;;;;11.45;5.07;;;11.90;99.90;;;;;;5076966;28;20096;-46
2022/01/02 06:45:46;;;;;;;11.40;5.22;;;12.00;99.90;;;;;;5072978;28;20028;-48
2022/01/02 06:48:11;;;;;;;15.27;5.57;;;12.00;99.90;;;;;;5073234;28;20025;-49
2022/01/02 06:50:39;;;;;;;11.70;5.38;;;12.10;99.90;;;;;;5074927;28;20032;-46
2022/01/02 06:53:04;;;;;;;10.98;5.30;;;12.00;99.90;;;;;;5076699;28;20021;-47
2022/01/02 06:55:30;;;;;;;9.85;5.35;;;12.00;99.90;;;;;;5074176;28;20159;-47
2022/01/02 06:57:55;;;;;;;14.85;5.30;;;11.90;99.90;;;;;;5072759;28;20028;-46
2022/01/02 07:00:21;;;;;;;12.57;5.57;;;11.80;99.90;;;;;;5073042;28;20481;-50
2022/01/02 07:02:46;;;;;;;13.80;5.57;;;11.80;99.90;;;;;;5079709;28;20373;-47
2022/01/02 07:05:12;;;;;;;10.25;4.85;;;11.90;99.90;;;;;;5080688;28;20356;-47
2022/01/02 07:07:42;;;;;;;13.35;4.95;;;11.80;99.90;;;;;;5081535;28;20024;-50
2022/01/02 07:10:11;;;;;;;10.67;4.77;;;11.90;99.90;;;;;;5090581;28;20031;-47
2022/01/02 07:12:37;;;;;;;10.05;4.97;;;11.80;99.90;;;;;;5092107;28;20711;-46
2022/01/02 07:15:04;;;;;;;10.48;5.28;;;11.80;99.90;;;;;;5091964;28;20048;-48
2022/01/02 07:17:30;;;;;;;10.95;5.00;;;11.80;99.90;;;;;;5090937;28;20103;-50
2022/01/02 07:19:55;;;;;;;12.18;5.15;;;11.80;99.90;;;;;;5091550;28;20193;-47
2022/01/02 07:22:21;;;;;;;11.85;5.07;;;11.80;99.90;;;;;;5091152;28;20093;-46
2022/01/02 07:24:51;;;;;;;12.30;5.40;;;11.90;99.90;;;;;;5091342;28;20062;-46
2022/01/02 07:27:20;;;;;;;11.80;5.53;;;11.90;99.90;;;;;;5090720;28;20016;-46
2022/01/02 07:29:47;;;;;;;16.75;5.20;;;11.80;99.90;;;;;;5091208;28;20118;-48
2022/01/02 07:32:13;;;;;;;10.38;5.50;;;11.80;99.90;;;;;;5090034;28;20016;-45
2022/01/02 07:34:39;;;;;;;10.45;4.97;;;11.90;99.90;;;;;;5091362;28;20027;-47
2022/01/02 07:37:04;;;;;;;14.18;5.53;;;11.80;99.90;;;;;;5079379;28;20429;-47
2022/01/02 07:39:30;;;;;;;12.77;5.40;;;11.80;99.90;;;;;;5088585;28;20044;-48
2022/01/02 07:41:55;;;;;;;11.32;5.38;;;11.80;99.90;;;;;;5084213;28;20024;-46
2022/01/02 07:44:21;;;;;;;11.82;5.70;;;11.80;99.90;;;;;;5073263;28;20032;-48
2022/01/02 07:46:46;;;;;;;13.18;5.15;;;11.80;99.90;;;;;;5071348;28;20142;-48
2022/01/02 07:49:12;;;;;;;18.70;5.22;;;11.80;99.90;;;;;;5069544;28;20508;-48
2022/01/02 07:51:37;;;;;;;12.35;4.70;;;11.90;99.90;;;;;;5071159;28;20025;-47
2022/01/02 07:54:03;;;;;;;14.48;6.13;;;11.90;99.90;;;;;;5069494;28;20086;-48
2022/01/02 07:56:28;;;;;;;11.90;5.22;;;11.90;99.90;;;;;;5069569;28;20016;-46
2022/01/02 07:58:55;;;;;;;9.75;4.68;;;11.90;99.90;;;;;;5070298;28;20028;-46
2022/01/02 08:01:21;;;;;;;11.40;4.15;;;11.90;99.90;;;;;;5070654;28;20017;-46
2022/01/02 08:03:47;;;;;;;11.20;4.80;;;11.90;99.90;;;;;;5070880;28;20032;-47
2022/01/02 08:06:12;;;;;;;15.75;4.72;;;12.00;99.90;;;;;;5069867;28;20078;-46
2022/01/02 08:08:38;;;;;;;10.95;4.70;;;12.00;99.90;;;;;;5069781;28;20021;-49
2022/01/02 08:11:03;;;;;;;8.93;4.60;;;12.00;99.90;;;;;;5071887;28;20032;-46
2022/01/02 08:13:29;;;;;;;8.95;4.70;;;12.00;99.90;;;;;;5079155;28;20103;-47
2022/01/02 08:15:54;;;;;;;10.35;4.43;;;11.90;99.90;;;;;;5086968;28;20042;-47
2022/01/02 08:18:21;;;;;;;10.35;4.95;;;11.90;99.90;;;;;;5089749;28;20020;-46
2022/01/02 08:20:47;;;;;;;10.85;5.15;;;11.90;99.90;;;;;;5089043;28;20505;-49
2022/01/02 08:23:13;;;;;;;9.35;5.47;;;11.90;99.90;;;;;;5086816;28;20032;-47
2022/01/02 08:25:39;;;;;;;9.38;5.35;;;11.90;99.90;;;;;;5084336;28;20055;-47
2022/01/02 08:28:05;;;;;;;12.07;5.07;;;11.90;99.90;;;;;;5080840;28;20473;-47
2022/01/02 08:30:31;;;;;;;8.40;4.80;;;11.90;99.90;;;;;;5068843;28;20024;-47
2022/01/02 08:32:56;;;;;;;12.35;5.32;;;11.90;99.90;;;;;;5071685;28;20191;-48
2022/01/02 08:35:22;;;;;;;11.38;5.00;;;11.90;99.90;;;;;;5072806;28;20039;-47
2022/01/02 08:37:47;;;;;;;15.93;5.57;;;11.90;99.90;;;;;;5081299;28;20052;-47
2022/01/02 08:40:13;;;;;;;10.93;4.72;;;12.00;99.90;;;;;;5077257;28;20048;-47
2022/01/02 08:42:38;;;;;;;10.80;5.05;;;12.00;99.90;;;;;;5074285;28;20107;-47
2022/01/02 08:45:04;;;;;;;12.07;5.68;;;12.00;99.90;;;;;;5073490;28;20103;-46
2022/01/02 08:47:30;;;;;;;12.70;5.30;;;12.00;99.90;;;;;;5080860;28;20254;-47
2022/01/02 08:49:56;;;;;;;14.80;5.18;;;12.10;99.90;;;;;;5088560;28;20535;-46
2022/01/02 08:52:21;;;;;;;10.20;4.28;;;12.10;99.90;;;;;;5089566;28;20040;-47
2022/01/02 08:54:47;;;;;;;12.00;4.88;;;12.10;99.90;;;;;;5089809;28;20434;-47
2022/01/02 08:57:13;;;;;;;8.68;4.88;;;12.20;99.90;;;;;;5088038;28;20413;-49
2022/01/02 08:59:39;;;;;;;8.90;4.63;;;12.20;99.90;;;;;;5089411;28;20489;-49
2022/01/02 09:02:05;;;;;;;14.07;5.15;;;12.20;99.90;;;;;;5088134;28;20417;-47
2022/01/02 09:04:31;;;;;;;8.93;4.15;;;12.30;99.90;;;;;;5089120;28;20224;-48
2022/01/02 09:06:57;;;;;;;11.88;4.88;;;12.40;99.90;;;;;;5080295;28;20028;-46
2022/01/02 09:09:24;;;;;;;8.52;4.40;;;12.40;99.90;;;;;;5088606;28;20127;-46
2022/01/02 09:11:50;;;;;;;10.57;4.75;;;12.40;99.90;;;;;;5087934;28;20024;-46
2022/01/02 09:14:16;;;;;;;12.20;5.47;;;12.40;99.90;;;;;;5089251;28;20092;-46
2022/01/02 09:16:44;;;;;;;8.98;3.75;;;12.40;99.90;;;;;;5089104;28;20103;-47
2022/01/02 09:19:10;;;;;;;8.13;4.35;;;12.40;99.90;;;;;;5077627;28;20017;-46
2022/01/02 09:21:35;;;;;;;14.32;4.43;;;12.50;99.90;;;;;;5074564;28;20120;-46
2022/01/02 09:24:01;;;;;;;12.15;4.30;;;12.40;99.90;;;;;;5072490;28;20070;-47
2022/01/02 09:26:26;;;;;;;8.05;4.40;;;12.40;99.90;;;;;;5069539;28;20020;-49
2022/01/02 09:28:52;;;;;;;11.45;4.75;;;12.40;99.90;;;;;;5075743;28;20020;-46
2022/01/02 09:31:17;;;;;;;12.38;4.43;;;12.40;99.90;;;;;;5080459;28;20405;-50
2022/01/02 09:33:43;;;;;;;11.43;4.32;;;12.40;99.90;;;;;;5088713;28;20286;-48
2022/01/02 09:36:08;;;;;;;12.43;4.70;;;12.40;99.90;;;;;;5079423;28;20567;-49
2022/01/02 09:38:34;;;;;;;9.45;4.35;;;12.30;99.90;;;;;;5074158;28;20039;-47
2022/01/02 09:41:00;;;;;;;13.98;4.53;;;12.30;99.90;;;;;;5078369;28;20037;-47
2022/01/02 09:43:26;;;;;;;12.40;4.43;;;12.30;99.90;;;;;;5072223;28;20528;-49
2022/01/02 09:45:52;;;;;;;8.82;5.10;;;12.30;99.90;;;;;;5078406;28;20028;-47
2022/01/02 09:48:18;;;;;;;12.13;5.28;;;12.30;99.90;;;;;;5079791;28;20167;-50
2022/01/02 09:50:47;;;;;;;13.18;4.80;;;12.40;99.90;;;;;;5088763;28;20026;-50
2022/01/02 09:53:13;;;;;;;15.02;5.50;;;12.40;99.90;;;;;;5087903;28;20649;-48
2022/01/02 09:55:39;;;;;;;14.10;7.80;;;12.40;99.90;;;;;;5088874;28;20024;-47
2022/01/02 09:58:10;;;;;;;10.55;4.78;;;12.30;99.90;;;;;;5088212;28;20024;-48
2022/01/02 10:00:37;;;;;;;8.60;4.88;;;12.30;99.90;;;;;;5088085;28;20270;-50
2022/01/02 10:03:05;;;;;;;15.32;5.53;;;12.40;99.90;;;;;;5088187;28;20120;-50
2022/01/02 10:05:50;;;;;;;9.20;5.15;;;12.40;99.90;;;;;;5084159;28;20025;-50
2022/01/02 10:08:27;;;;;;;8.75;4.50;;;12.30;99.90;;;;;;5078588;28;20020;-50
2022/01/02 10:11:07;;;;;;;12.00;5.13;;;12.40;99.90;;;;;;5081148;28;20361;-50
2022/01/02 10:13:47;;;;;;;13.95;5.28;;;12.40;99.90;;;;;;5073942;28;20032;-48
2022/01/02 10:16:33;;;;;;;10.82;4.95;;;12.50;99.90;;;;;;5088576;28;20243;-47
2022/01/02 10:19:01;;;;;;;11.65;5.53;;;12.50;99.90;;;;;;5087923;28;20369;-51
2022/01/02 10:21:27;;;;;;;15.60;6.53;;;12.60;99.90;;;;;;5072716;28;20024;-48
2022/01/02 10:24:33;;;;;;;10.65;5.85;;;12.60;99.90;;;;;;5066589;28;20048;-48
2022/01/02 10:27:08;;;;;;;14.55;6.32;;;12.70;99.90;;;;;;5033578;28;20025;-49
2022/01/02 10:29:51;;;;;;;19.63;6.18;;;12.70;99.90;;;;;;5076382;28;20047;-50
2022/01/02 10:32:26;;;;;;;15.95;5.95;;;12.60;99.90;;;;;;5088280;28;20382;-49
2022/01/02 10:34:52;;;;;;;12.73;5.70;;;12.60;99.90;;;;;;5073877;28;20025;-50
2022/01/02 10:37:25;;;;;;;10.40;5.20;;;12.60;99.90;;;;;;5068072;28;20046;-50
2022/01/02 10:39:51;;;;;;;16.67;6.28;;;12.60;99.90;;;;;;5077236;28;20028;-52
2022/01/02 10:42:18;;;;;;;10.02;4.90;;;12.60;99.90;;;;;;5071023;28;20100;-48
2022/01/02 10:44:43;;;;;;;11.98;5.22;;;12.70;99.90;;;;;;5070896;28;20028;-48
2022/01/02 10:47:24;;;;;;;15.05;5.85;;;12.70;99.90;;;;;;5074160;28;20492;-50
2022/01/02 10:50:04;;;;;;;12.75;5.40;;;12.70;99.90;;;;;;5079842;28;20067;-50
2022/01/02 10:52:38;;;;;;;8.43;4.80;;;12.70;99.90;;;;;;5088224;28;20048;-47
2022/01/02 10:55:14;;;;;;;13.88;4.10;;;12.70;99.90;;;;;;5077967;28;20450;-50
2022/01/02 10:57:42;;;;;;;9.75;3.95;;;12.90;99.90;;;;;;5076614;28;20036;-47
2022/01/02 11:00:09;;;;;;;8.43;3.50;;;12.90;99.90;;;;;;5077706;28;20411;-47
2022/01/02 11:02:35;;;;;;;7.95;3.35;;;13.00;99.90;;;;;;5077698;28;20028;-50
2022/01/02 11:05:05;;;;;;;8.30;3.17;;;13.00;99.90;;;;;;5082821;28;20093;-49
2022/01/02 11:07:48;;;;;;;8.73;3.88;;;13.00;99.90;;;;;;5075070;28;20247;-50
2022/01/02 11:10:18;;;;;;;8.98;3.47;;;13.00;99.90;;;;;;5085868;28;20031;-48
2022/01/02 11:12:44;;;;;;;8.50;4.07;;;13.10;99.90;;;;;;5087984;28;20059;-47
2022/01/02 11:15:13;;;;;;;8.25;3.65;;;13.10;99.90;;;;;;5091518;28;20024;-47
2022/01/02 11:17:38;;;;;;;5.82;3.30;;;13.20;99.90;;;;;;5091019;28;20024;-50
2022/01/02 11:20:09;;;;;;;7.60;3.17;;;13.20;99.90;;;;;;5091471;28;20024;-50
2022/01/02 11:22:49;;;;;;;8.77;3.17;;;13.10;99.90;;;;;;5090077;28;20028;-48
2022/01/02 11:25:32;;;;;;;9.73;3.10;;;13.20;99.90;;;;;;5090539;28;20231;-47
2022/01/02 11:28:00;;;;;;;5.90;3.20;;;13.30;99.90;;;;;;5090992;28;20028;-50
2022/01/02 11:30:32;;;;;;;9.63;3.60;;;13.20;99.90;;;;;;5091302;28;20024;-48
2022/01/02 11:33:07;;;;;;;8.05;3.75;;;13.20;99.90;;;;;;5091419;28;20023;-49
2022/01/02 11:35:35;;;;;;;8.93;3.40;;;13.30;99.90;;;;;;5087294;28;20017;-49
2022/01/02 11:38:02;;;;;;;12.05;3.28;;;13.20;99.90;;;;;;5079222;28;20024;-47
2022/01/02 11:40:53;;;;;;;12.85;3.50;;;13.20;99.90;;;;;;5091153;28;20024;-49
2022/01/02 11:43:49;;;;;;;7.13;2.92;;;13.20;99.90;;;;;;5091162;28;20048;-48
2022/01/02 11:46:23;;;;;;;9.68;3.50;;;13.30;99.90;;;;;;5091317;28;20024;-47
2022/01/02 11:49:04;;;;;;;15.52;3.50;;;13.30;99.90;;;;;;5088939;28;20046;-48
2022/01/02 11:51:50;;;;;;;7.40;3.15;;;13.30;99.90;;;;;;5090764;28;20039;-49
2022/01/02 11:54:28;;;;;;;10.60;3.80;;;13.40;99.90;;;;;;5089495;28;20180;-48
2022/01/02 11:56:57;;;;;;;6.32;3.15;;;13.50;99.90;;;;;;5088958;28;20524;-47
2022/01/02 11:59:44;;;;;;;9.50;3.30;;;13.60;99.90;;;;;;5090042;28;20047;-48
2022/01/02 12:02:13;;;;;;;7.22;3.15;;;13.60;99.90;;;;;;5091074;28;20046;-47
2022/01/02 12:04:57;;;;;;;8.18;2.72;;;13.70;99.90;;;;;;5090607;28;20028;-49
2022/01/02 12:07:50;;;;;;;6.22;2.65;;;13.90;99.90;;;;;;5080445;28;20024;-48
2022/01/02 12:10:15;;;;;;;13.55;2.78;;;13.90;99.90;;;;;;5089947;28;20028;-49
2022/01/02 12:12:59;;;;;;;11.35;3.15;;;13.90;99.90;;;;;;5090568;28;20020;-47
2022/01/02 12:15:30;;;;;;;6.40;2.78;;;13.80;99.90;;;;;;5090499;28;20420;-48
2022/01/02 12:18:23;;;;;;;6.60;2.78;;;13.90;99.90;;;;;;5090111;28;20441;-48
2022/01/02 12:20:57;;;;;;;13.13;3.00;;;13.90;99.90;;;;;;5090236;28;20026;-47
2022/01/02 12:26:05;;;;;;;7.15;2.38;;;13.90;99.90;;;;;;5090464;28;20040;-47
2022/01/02 12:28:46;;;;;;;8.85;2.70;;;14.00;99.90;;;;;;5089563;28;20024;-48
2022/01/02 12:31:14;;;;;;;9.95;2.80;;;14.10;99.90;;;;;;5090337;28;20032;-48
2022/01/02 12:33:40;;;;;;;9.82;2.85;;;14.10;99.90;;;;;;5090266;28;20511;-47
2022/01/02 12:36:13;;;;;;;8.82;2.53;;;14.10;99.90;;;;;;5084011;28;20055;-47
2022/01/02 12:38:55;;;;;;;5.38;2.50;;;14.20;99.90;;;;;;5080753;28;20058;-47
2022/01/02 12:41:24;;;;;;;5.43;2.75;;;14.30;99.90;;;;;;5089991;28;20032;-47
2022/01/02 12:44:06;;;;;;;10.10;2.70;;;14.30;99.90;;;;;;5088556;28;20035;-50
2022/01/02 12:46:50;;;;;;;8.88;3.45;;;14.30;99.90;;;;;;5090058;28;20578;-47
2022/01/02 12:49:34;;;;;;;9.70;3.58;;;14.30;99.90;;;;;;5089052;28;20485;-48
2022/01/02 12:52:03;;;;;;;8.50;2.60;;;14.30;99.90;;;;;;5089543;28;20020;-49
2022/01/02 12:54:32;;;;;;;6.55;2.60;;;14.20;99.90;;;;;;5089974;28;20260;-48